• Join FlightAware (Why Join?)
  • Login
  • US Flag 
05:26PM EDT


 

Airport Tracker/Info


-or-


 

Live Flight TrackerFlight Track Log ✈ N711FG ✈ 05-May-2013 ✈ KBNA - KGPT

Flight Track Log - Related Links

Times and Time Zones

All times are in EDT time to prevent confusion due to time zone crossing. See the N711FG flight status page for this flight to view local times or setup timezone preferences in your user account.

Time Position Orientation Groundspeed Altitude Reporting Facility
EDT Latitude Longitude Course Direction KTS MPH feet Rate Location/Type
09:51AM 36.1833 -86.6667 15° North 223 257 3,300  Level Nashville TRACON
09:52AM 36.2119 -86.7378 297° West 289 333 5,900 2,520 Climbing Memphis Center
09:53AM 36.1469 -86.7919 214° Southwest 291 335 8,600 2,940 Climbing Memphis Center
09:54AM 36.0775 -86.8414 210° Southwest 341 392 11,800 3,300 Climbing Memphis Center
09:55AM 36.0017 -86.8958 210° Southwest 341 392 15,200 3,360 Climbing Memphis Center
09:56AM 35.9217 -86.9378 203° Southwest 326 375 18,600 3,120 Climbing Memphis Center
09:57AM 35.8350 -86.9744 199° South 326 375 21,500 2,820 Climbing Memphis Center
09:58AM 35.7464 -87.0089 198° South 332 382 24,300 2,700 Climbing Memphis Center
09:59AM 35.6494 -87.0511 199° South 338 389 26,900 2,640 Climbing Memphis Center
10:00AM 35.5567 -87.0881 198° South 344 396 29,600 2,400 Climbing Memphis Center
10:01AM 35.4678 -87.1247 199° South 344 396 31,800 1,500 Climbing Memphis Center
10:02AM 35.3978 -87.1528 198° South 344 396 32,700 840 Climbing Memphis Center
10:03AM 35.2944 -87.1950 198° South 349 402 33,500 840 Climbing Memphis Center
10:04AM 35.1911 -87.2369 198° South 371 427 34,400 960 Climbing Memphis Center
10:05AM 35.0736 -87.2844 198° South 399 459 35,500 780 Climbing Memphis Center
10:06AM 34.9703 -87.3264 198° South 399 459 36,000 240 Climbing Memphis Center
10:07AM 34.8711 -87.3653 198° South 399 459 36,000  Level Memphis Center
10:08AM 34.7617 -87.4097 198° South 405 466 36,000  Level Memphis Center
10:09AM 34.6519 -87.4564 199° South 421 484 36,000  Level Memphis Center
10:10AM 34.5383 -87.4981 197° South 416 479 36,000  Level Memphis Center
10:11AM 34.4267 -87.5419 198° South 422 486 36,000  Level Memphis Center
10:12AM 34.3067 -87.5889 198° South 434 499 36,000  Level Memphis Center
10:13AM 34.1928 -87.6325 198° South 441 507 36,000  Level Memphis Center
10:14AM 34.0686 -87.6842 199° South 441 507 36,000  Level Memphis Center
10:15AM 33.9486 -87.7331 199° South 441 507 36,000  Level Memphis Center
10:16AM 33.8369 -87.7739 197° South 436 502 36,000  Level Memphis Center
10:17AM 33.7189 -87.8222 199° South 442 509 36,000  Level Memphis Center
10:18AM 33.6050 -87.8681 199° South 442 509 36,000  Level Memphis Center
10:19AM 33.4911 -87.9136 198° South 436 502 36,000  Level Memphis Center
10:20AM 33.3792 -87.9567 198° South 436 502 36,000  Level Memphis Center
10:21AM 33.2675 -87.9994 198° South 431 496 36,000  Level Memphis Center
10:22AM 33.1575 -88.0419 198° South 426 490 36,000  Level Memphis Center
10:23AM 33.0456 -88.0847 198° South 421 484 36,000  Level Memphis Center
10:24AM 32.9483 -88.1217 198° South 413 475 36,000  Level Memphis Center
10:25AM 32.8364 -88.1667 199° South 413 475 36,000  Level Memphis Center
10:26AM 32.7222 -88.2114 198° South 423 487 36,000  Level Memphis Center
10:27AM 32.6103 -88.2511 197° South 423 487 36,000  Level Memphis Center
10:28AM 32.4983 -88.2956 199° South 423 487 36,000 -180 Level Memphis Center
10:29AM 32.3758 -88.3453 199° South 423 487 35,700 -660 Descending Memphis Center
10:30AM 32.2597 -88.3872 197° South 423 487 34,700 -1,020 Descending Memphis Center
10:31AM 32.1558 -88.4214 196° South 429 494 33,700 -1,620 Descending Memphis Center
10:33AM 31.9122 -88.5106 197° South 428 493 29,900 -1,860 Descending Houston Center
10:34AM 31.8000 -88.5547 198° South 427 491 28,100 -960 Descending Houston Center
10:35AM 31.6875 -88.5953 197° South 423 487 28,000 -1,020 Descending Houston Center
10:36AM 31.5767 -88.6383 198° South 423 487 26,100 -1,980 Descending Houston Center
10:37AM 31.4622 -88.6822 198° South 434 499 24,000 -2,100 Descending Houston Center
10:38AM 31.3508 -88.7222 197° South 425 489 21,900 -2,280 Descending Houston Center
10:39AM 31.2439 -88.7625 198° South 410 472 19,400 -3,120 Descending Houston Center
10:40AM 31.1200 -88.8069 197° South 394 453 15,600 -3,480 Descending Houston Center
10:41AM 31.0239 -88.8442 198° South 372 428 12,300 -2,280 Descending Houston Center
10:42AM 30.9331 -88.8761 197° South 347 399 11,000 -900 Descending Houston Center
10:43AM 30.8569 -88.9056 198° South 301 346 10,500 -780 Descending Houston Center
10:44AM 30.7847 -88.9314 197° South 278 320 9,500 -1,260 Descending Houston Center
10:45AM 30.7147 -88.9567 197° South 272 313 8,000 -1,800 Descending Houston Center
10:46AM 30.6297 -88.9867 197° South 267 307 5,900 -1,620 Descending Houston Center
10:47AM 30.5614 -88.9958 187° South 249 287 4,700 -1,080 Descending Houston Center
10:48AM 30.5000 -88.9847 171° South 233 268 3,800 -780 Descending Houston Center
10:49AM 30.4453 -88.9603 159° South 220 253 3,200 -840 Descending Houston Center
10:50AM 30.4006 -88.9667 187° South 189 217 2,100 -840 Descending Houston Center
10:51AM 30.3733 -89.0022 228° Southwest 160 184 1,500 -420 Descending Houston Center
10:52AM 30.3639 -89.0519 258° West 153 176 1,300 -240 Descending Houston Center
10:54AM 30.4000 -89.0667 270° West  Level FlightAware Approximate
11:01AM 30.4073 -89.0701 270° West  Level Estimated